Terminal Aerodrome Forecast
Issued by NWS Wilmington, OH

Current Version | Previous Version | Graphics & Text | Print | Product List | Glossary On
Versions: 1 2 3 4 5 6 7 8 9 10 11 12 13 14 15 16 17 18 19
000
FTUS41 KILN 242300
TAFCVG
TAF
KCVG 242334Z 2500/2606 26016G26KT P6SM BKN013 OVC017
     FM250200 26015G25KT P6SM VCSH OVC018
     FM250800 25012G20KT P6SM VCSH OVC022
     FM251300 23010KT P6SM BKN025
     FM260000 18006KT P6SM BKN025=

USA.gov is the U.S. government's official web portal to all federal, state and local government web resources and services.